METAR Data
IDs: Format: Raw Decoded Include TAF

Data at: 2042 UTC 02 Aug 2021

KMIO 022035Z AUTO 02008KT 9SM SCT047 SCT055 SCT070 28/18 A3006 RMK AO2